createdAt,value
2019-05-26T00:00:41.109Z,11.50
2019-05-26T00:03:12.131Z,11.40
2019-05-26T00:05:43.070Z,11.40
2019-05-26T00:08:14.019Z,11.30
2019-05-26T00:10:44.954Z,11.30
2019-05-26T00:13:15.931Z,11.30
2019-05-26T00:15:47.209Z,11.20
2019-05-26T00:18:19.690Z,11.20
2019-05-26T00:20:50.616Z,11.20
2019-05-26T00:23:21.993Z,11.10
2019-05-26T00:25:53.432Z,11.10
2019-05-26T00:28:24.475Z,11.00
2019-05-26T00:30:55.952Z,11.00
2019-05-26T00:33:27.008Z,10.90
2019-05-26T00:35:58.258Z,10.90
2019-05-26T00:38:29.556Z,10.90
2019-05-26T00:41:00.912Z,10.80
2019-05-26T00:43:32.017Z,10.80
2019-05-26T00:46:02.979Z,10.80
2019-05-26T00:48:33.913Z,10.80
2019-05-26T00:51:05.018Z,10.80
2019-05-26T00:53:36.058Z,10.80
2019-05-26T00:56:06.988Z,10.80
2019-05-26T00:58:38.224Z,10.80
2019-05-26T01:01:09.152Z,10.70
2019-05-26T01:03:40.256Z,10.70
2019-05-26T01:06:11.662Z,10.70
2019-05-26T01:08:42.733Z,10.70
2019-05-26T01:11:14.418Z,10.80
2019-05-26T01:13:45.450Z,10.80
2019-05-26T01:16:16.444Z,10.80
2019-05-26T01:18:47.486Z,10.80
2019-05-26T01:21:18.488Z,10.80
2019-05-26T01:23:49.514Z,10.80
2019-05-26T01:26:20.525Z,10.80
2019-05-26T01:28:51.461Z,10.80
2019-05-26T01:31:22.461Z,10.80
2019-05-26T01:33:54.511Z,10.70
2019-05-26T01:36:25.451Z,10.70
2019-05-26T01:38:57.545Z,10.70
2019-05-26T01:41:28.492Z,10.70
2019-05-26T01:43:59.434Z,10.70
2019-05-26T01:46:30.386Z,10.70
2019-05-26T01:49:01.457Z,10.70
2019-05-26T01:51:32.461Z,10.60
2019-05-26T01:54:03.427Z,10.60
2019-05-26T01:56:34.701Z,10.50
2019-05-26T01:59:05.696Z,10.60
2019-05-26T02:01:37.017Z,10.60
2019-05-26T02:04:08.482Z,10.60
2019-05-26T02:06:39.493Z,10.60
2019-05-26T02:09:10.860Z,10.60
2019-05-26T02:11:42.185Z,10.50
2019-05-26T02:14:14.671Z,10.60
2019-05-26T02:16:46.221Z,10.60
2019-05-26T02:19:17.479Z,10.60
2019-05-26T02:21:48.500Z,10.60
2019-05-26T02:24:19.432Z,10.60
2019-05-26T02:26:50.374Z,10.70
2019-05-26T02:29:21.330Z,10.60
2019-05-26T02:31:52.269Z,10.60
2019-05-26T02:34:23.607Z,10.70
2019-05-26T02:36:54.603Z,10.70
2019-05-26T02:39:25.870Z,10.70
2019-05-26T02:41:56.947Z,10.60
2019-05-26T02:44:28.412Z,10.70
2019-05-26T02:46:59.396Z,10.60
2019-05-26T02:49:30.417Z,10.70
2019-05-26T02:52:01.494Z,10.70
2019-05-26T02:54:32.431Z,10.70
2019-05-26T02:57:03.770Z,10.70
2019-05-26T02:59:34.869Z,10.60
2019-05-26T03:02:06.129Z,10.60
2019-05-26T03:04:37.478Z,10.60
2019-05-26T03:07:09.646Z,10.70
2019-05-26T03:09:43.013Z,10.60
2019-05-26T03:12:15.825Z,10.60
2019-05-26T03:14:50.624Z,10.60
2019-05-26T03:17:23.515Z,10.60
2019-05-26T03:19:56.206Z,10.50
2019-05-26T03:22:28.799Z,10.60
2019-05-26T03:25:01.228Z,10.60
2019-05-26T03:27:32.552Z,10.60
2019-05-26T03:30:04.178Z,10.60
2019-05-26T03:32:35.256Z,10.70
2019-05-26T03:35:08.437Z,10.70
2019-05-26T03:37:39.859Z,10.70
2019-05-26T03:40:12.063Z,10.70
2019-05-26T03:42:43.344Z,10.70
2019-05-26T03:45:23.726Z,10.60
2019-05-26T03:47:54.740Z,10.60
2019-05-26T03:50:25.854Z,10.70
2019-05-26T03:52:56.870Z,10.70
2019-05-26T03:55:27.900Z,10.80
2019-05-26T03:57:58.916Z,10.80
2019-05-26T04:00:29.978Z,10.80
2019-05-26T04:03:01.021Z,10.80
2019-05-26T04:05:32.207Z,10.80
2019-05-26T04:08:05.440Z,10.80
2019-05-26T04:10:36.624Z,10.80
2019-05-26T04:13:08.138Z,10.90
2019-05-26T04:15:39.174Z,10.90
2019-05-26T04:18:10.210Z,10.90
2019-05-26T04:20:45.541Z,10.90
2019-05-26T04:23:13.942Z,10.90
2019-05-26T04:25:46.102Z,10.90
2019-05-26T04:28:17.517Z,11.00
2019-05-26T04:30:48.448Z,11.00
2019-05-26T04:33:19.447Z,11.00
2019-05-26T04:35:50.489Z,11.00
2019-05-26T04:38:21.885Z,11.00
2019-05-26T04:40:53.244Z,11.10
2019-05-26T04:43:24.593Z,11.00
2019-05-26T04:45:55.611Z,11.10
2019-05-26T04:48:26.889Z,11.10
2019-05-26T04:50:57.985Z,11.10
2019-05-26T04:53:28.993Z,11.20
2019-05-26T04:55:59.932Z,11.20
2019-05-26T04:58:31.020Z,11.20
2019-05-26T05:01:02.057Z,11.20
2019-05-26T05:03:33.070Z,11.30
2019-05-26T05:06:04.088Z,11.30
2019-05-26T05:08:35.743Z,11.30
2019-05-26T05:11:07.022Z,11.30
2019-05-26T05:13:38.724Z,11.40
2019-05-26T05:16:10.155Z,11.50
2019-05-26T05:18:41.171Z,11.50
2019-05-26T05:21:12.127Z,11.60
2019-05-26T05:23:43.056Z,11.60
2019-05-26T05:26:14.335Z,11.60
2019-05-26T05:28:45.274Z,11.70
2019-05-26T05:31:16.518Z,11.70
2019-05-26T05:33:47.540Z,11.70
2019-05-26T05:36:19.033Z,11.80
2019-05-26T05:38:50.369Z,11.90
2019-05-26T05:41:21.389Z,12.00
2019-05-26T05:43:55.170Z,12.10
2019-05-26T05:46:26.667Z,12.10
2019-05-26T05:48:57.963Z,12.30
2019-05-26T05:51:28.934Z,12.30
2019-05-26T05:54:01.131Z,12.40
2019-05-26T05:56:32.873Z,12.40
2019-05-26T05:59:04.338Z,12.40
2019-05-26T06:01:35.367Z,12.40
2019-05-26T06:04:06.704Z,12.40
2019-05-26T06:06:38.078Z,12.40
2019-05-26T06:09:09.715Z,12.50
2019-05-26T06:11:40.626Z,12.50
2019-05-26T06:14:11.618Z,12.50
2019-05-26T06:16:43.429Z,12.60
2019-05-26T06:19:14.364Z,12.70
2019-05-26T06:21:45.941Z,12.70
2019-05-26T06:24:16.973Z,12.70
2019-05-26T06:26:48.051Z,12.80
2019-05-26T06:29:19.399Z,13.00
2019-05-26T06:31:50.514Z,13.00
2019-05-26T06:34:21.735Z,13.10
2019-05-26T06:36:53.194Z,13.20
2019-05-26T06:39:24.166Z,13.30
2019-05-26T06:41:55.486Z,13.30
2019-05-26T06:44:26.416Z,13.40
2019-05-26T06:46:57.467Z,13.50
2019-05-26T06:49:28.480Z,13.60
2019-05-26T06:51:59.464Z,13.60
2019-05-26T06:54:30.868Z,13.70
2019-05-26T06:57:01.921Z,13.70
2019-05-26T06:59:32.908Z,13.70
2019-05-26T07:02:04.039Z,13.70
2019-05-26T07:04:35.026Z,13.90
2019-05-26T07:07:06.374Z,13.90
2019-05-26T07:09:37.768Z,14.10
2019-05-26T07:12:08.860Z,14.10
2019-05-26T07:14:40.260Z,14.20
2019-05-26T07:17:11.301Z,14.40
2019-05-26T07:19:42.334Z,14.50
2019-05-26T07:22:13.264Z,14.50
2019-05-26T07:24:44.285Z,14.50
2019-05-26T07:27:16.798Z,14.60
2019-05-26T07:29:47.786Z,14.50
2019-05-26T07:32:19.828Z,14.60
2019-05-26T07:34:50.821Z,14.60
2019-05-26T07:37:22.024Z,14.70
2019-05-26T07:39:53.027Z,14.70
2019-05-26T07:42:24.036Z,14.70
2019-05-26T07:44:55.135Z,14.80
2019-05-26T07:47:27.209Z,14.90
2019-05-26T07:49:58.538Z,15.00
2019-05-26T07:52:29.546Z,15.00
2019-05-26T07:55:00.547Z,15.00
2019-05-26T07:57:34.153Z,15.10
2019-05-26T08:00:05.803Z,15.10
2019-05-26T08:02:36.787Z,15.10
2019-05-26T08:05:08.164Z,15.20
2019-05-26T08:07:39.690Z,15.30
2019-05-26T08:10:11.920Z,15.30
2019-05-26T08:12:42.886Z,15.40
2019-05-26T08:15:15.604Z,15.50
2019-05-26T08:17:46.624Z,15.60
2019-05-26T08:20:18.211Z,15.60
2019-05-26T08:22:50.023Z,15.60
2019-05-26T08:25:21.103Z,15.70
2019-05-26T08:27:52.461Z,15.70
2019-05-26T08:30:26.592Z,15.80
2019-05-26T08:32:57.622Z,15.80
2019-05-26T08:35:28.700Z,15.80
2019-05-26T08:38:03.222Z,15.80
2019-05-26T08:40:34.600Z,15.80
2019-05-26T08:43:06.068Z,15.90
2019-05-26T08:45:37.492Z,15.80
2019-05-26T08:48:11.848Z,15.80
2019-05-26T08:50:43.172Z,15.80
2019-05-26T08:53:14.298Z,15.90
2019-05-26T08:55:45.740Z,16.00
2019-05-26T08:58:16.821Z,15.90
2019-05-26T09:00:48.206Z,15.90
2019-05-26T09:03:19.711Z,16.00
2019-05-26T09:05:51.367Z,16.10
2019-05-26T09:08:22.694Z,16.30
2019-05-26T09:10:54.880Z,16.40
2019-05-26T09:13:25.923Z,16.50
2019-05-26T09:15:57.008Z,16.50
2019-05-26T09:18:28.533Z,16.60
2019-05-26T09:21:11.096Z,16.90
2019-05-26T09:23:42.580Z,16.90
2019-05-26T09:26:13.634Z,16.90
2019-05-26T09:28:45.639Z,17.00
2019-05-26T09:31:17.028Z,17.30
2019-05-26T09:33:48.079Z,17.40
2019-05-26T09:36:19.471Z,17.50
2019-05-26T09:38:50.408Z,17.50
2019-05-26T09:41:21.447Z,17.80
2019-05-26T09:43:52.849Z,17.80
2019-05-26T09:46:23.958Z,17.90
2019-05-26T09:48:55.128Z,17.90
2019-05-26T09:51:26.329Z,18.00
2019-05-26T09:54:01.822Z,18.10
2019-05-26T09:56:30.169Z,18.20
2019-05-26T09:59:01.209Z,18.20
2019-05-26T10:01:32.415Z,18.30
2019-05-26T10:04:03.828Z,18.30
2019-05-26T10:06:34.771Z,18.50
2019-05-26T10:09:08.157Z,18.50
2019-05-26T10:11:39.398Z,18.50
2019-05-26T10:14:10.442Z,18.50
2019-05-26T10:16:41.571Z,18.90
2019-05-26T10:19:12.720Z,19.10
2019-05-26T10:21:43.655Z,19.30
2019-05-26T10:24:14.694Z,19.30
2019-05-26T10:26:45.746Z,19.30
2019-05-26T10:29:17.124Z,19.50
2019-05-26T10:31:48.142Z,19.70
2019-05-26T10:34:19.488Z,19.90
2019-05-26T10:36:50.514Z,20.00
2019-05-26T10:39:21.983Z,20.20
2019-05-26T10:41:53.015Z,19.80
2019-05-26T10:44:24.656Z,20.00
2019-05-26T10:46:55.660Z,20.30
2019-05-26T10:49:26.737Z,20.60
2019-05-26T10:51:58.094Z,21.00
2019-05-26T10:54:29.558Z,20.90
2019-05-26T10:57:01.341Z,20.80
2019-05-26T10:59:32.686Z,20.80
2019-05-26T11:02:03.740Z,21.10
2019-05-26T11:04:34.919Z,20.90
2019-05-26T11:07:07.972Z,21.20
2019-05-26T11:09:39.348Z,21.30
2019-05-26T11:12:10.631Z,20.80
2019-05-26T11:14:41.571Z,21.10
2019-05-26T11:17:12.672Z,21.30
2019-05-26T11:19:44.190Z,21.00
2019-05-26T11:22:15.130Z,21.20
2019-05-26T11:24:47.211Z,21.50
2019-05-26T11:27:18.149Z,21.60
2019-05-26T11:29:49.145Z,21.80
2019-05-26T11:32:20.365Z,21.90
2019-05-26T11:35:01.665Z,21.70
2019-05-26T11:37:32.619Z,21.40
2019-05-26T11:40:05.392Z,21.60
2019-05-26T11:42:36.399Z,21.20
2019-05-26T11:45:08.912Z,21.20
2019-05-26T11:47:40.169Z,21.00
2019-05-26T11:50:13.257Z,21.00
2019-05-26T11:52:45.383Z,21.10
2019-05-26T11:55:16.826Z,21.20
2019-05-26T11:57:50.391Z,21.00
2019-05-26T12:00:22.367Z,20.90
2019-05-26T12:02:53.487Z,21.00
2019-05-26T12:05:26.264Z,21.10
2019-05-26T12:07:57.365Z,21.40
2019-05-26T12:10:28.987Z,21.20
2019-05-26T12:12:59.981Z,21.00
2019-05-26T12:15:31.048Z,21.30
2019-05-26T12:18:03.488Z,21.50
2019-05-26T12:20:34.679Z,21.40
2019-05-26T12:23:05.851Z,21.30
2019-05-26T12:25:36.956Z,21.20
2019-05-26T12:28:09.353Z,21.30
2019-05-26T12:30:40.490Z,21.30
2019-05-26T12:33:11.901Z,21.30
2019-05-26T12:35:45.587Z,21.30
2019-05-26T12:38:16.792Z,21.30
2019-05-26T12:40:48.177Z,21.20
2019-05-26T12:43:19.679Z,21.10
2019-05-26T12:45:50.728Z,20.80
2019-05-26T12:48:21.865Z,20.60
2019-05-26T12:50:53.417Z,20.30
2019-05-26T12:53:24.953Z,20.10
2019-05-26T12:55:56.092Z,20.20
2019-05-26T12:58:27.256Z,20.70
2019-05-26T13:00:58.785Z,20.80
2019-05-26T13:03:29.912Z,20.50
2019-05-26T13:06:01.007Z,20.40
2019-05-26T13:08:32.421Z,20.50
2019-05-26T13:11:03.699Z,20.30
2019-05-26T13:13:35.001Z,20.10
2019-05-26T13:16:06.345Z,20.00
2019-05-26T13:18:37.366Z,19.90
2019-05-26T13:21:08.404Z,19.70
2019-05-26T13:23:39.511Z,19.60
2019-05-26T13:26:11.247Z,19.60
2019-05-26T13:28:42.509Z,19.50
2019-05-26T13:31:14.188Z,19.40
2019-05-26T13:33:45.388Z,19.30
2019-05-26T13:36:16.496Z,19.20
2019-05-26T13:38:48.063Z,19.20
2019-05-26T13:41:19.126Z,19.30
2019-05-26T13:43:50.143Z,19.30
2019-05-26T13:46:21.239Z,19.30
2019-05-26T13:48:52.225Z,19.40
2019-05-26T13:51:24.624Z,19.50
2019-05-26T13:53:55.719Z,19.60
2019-05-26T13:56:27.115Z,19.70
2019-05-26T13:58:58.147Z,19.80
2019-05-26T14:01:29.161Z,19.80
2019-05-26T14:04:01.281Z,20.00
2019-05-26T14:06:32.359Z,20.00
2019-05-26T14:09:04.038Z,20.20
2019-05-26T14:11:35.179Z,20.30
2019-05-26T14:14:06.209Z,20.40
2019-05-26T14:16:38.669Z,20.50
2019-05-26T14:19:09.840Z,20.40
2019-05-26T14:21:40.880Z,20.40
2019-05-26T14:24:12.396Z,20.50
2019-05-26T14:26:43.526Z,20.60
2019-05-26T14:29:14.632Z,20.60
2019-05-26T14:31:46.438Z,20.60
2019-05-26T14:34:17.534Z,20.70
2019-05-26T14:36:48.668Z,20.70
2019-05-26T14:39:19.800Z,20.80
2019-05-26T14:41:51.267Z,20.70
2019-05-26T14:44:22.420Z,20.50
2019-05-26T14:46:53.539Z,20.70
2019-05-26T14:49:25.114Z,20.70
2019-05-26T14:51:56.108Z,20.70
2019-05-26T14:54:27.182Z,20.70
2019-05-26T14:56:58.287Z,20.70
2019-05-26T14:59:29.395Z,20.80
2019-05-26T15:02:00.797Z,20.80
2019-05-26T15:04:31.935Z,20.70
2019-05-26T15:07:04.035Z,20.50
2019-05-26T15:09:35.122Z,20.60
2019-05-26T15:12:06.630Z,20.80
2019-05-26T15:14:37.685Z,20.90
2019-05-26T15:17:09.477Z,20.80
2019-05-26T15:19:40.596Z,20.80
2019-05-26T15:22:11.624Z,20.90
2019-05-26T15:24:42.654Z,20.80
2019-05-26T15:27:13.885Z,20.70
2019-05-26T15:29:45.051Z,20.70
2019-05-26T15:32:16.458Z,20.70
2019-05-26T15:34:47.670Z,20.50
2019-05-26T15:37:19.202Z,20.30
2019-05-26T15:39:51.461Z,20.30
2019-05-26T15:42:22.967Z,20.20
2019-05-26T15:44:54.007Z,19.90
2019-05-26T15:47:25.025Z,20.00
2019-05-26T15:49:56.172Z,20.00
2019-05-26T15:52:27.519Z,20.20
2019-05-26T15:54:58.647Z,20.40
2019-05-26T15:57:29.621Z,20.40
2019-05-26T16:00:00.972Z,20.40
2019-05-26T16:02:32.143Z,20.30
2019-05-26T16:05:03.634Z,20.40
2019-05-26T16:07:34.758Z,20.50
2019-05-26T16:10:06.523Z,20.40
2019-05-26T16:12:37.650Z,20.40
2019-05-26T16:15:09.603Z,20.50
2019-05-26T16:17:41.343Z,20.20
2019-05-26T16:20:12.979Z,20.30
2019-05-26T16:22:44.098Z,19.90
2019-05-26T16:25:15.250Z,19.90
2019-05-26T16:27:46.306Z,19.70
2019-05-26T16:30:18.254Z,19.60
2019-05-26T16:32:49.318Z,19.70
2019-05-26T16:35:20.375Z,19.50
2019-05-26T16:37:51.446Z,19.40
2019-05-26T16:40:22.756Z,19.30
2019-05-26T16:42:53.823Z,19.30
2019-05-26T16:45:24.898Z,19.20
2019-05-26T16:47:57.232Z,19.00
2019-05-26T16:50:28.563Z,19.00
2019-05-26T16:52:59.930Z,19.00
2019-05-26T16:55:31.079Z,18.80
2019-05-26T16:58:02.107Z,18.90
2019-05-26T17:00:33.208Z,18.90
2019-05-26T17:03:04.814Z,18.90
2019-05-26T17:05:35.888Z,18.90
2019-05-26T17:08:07.867Z,18.70
2019-05-26T17:10:42.591Z,18.80
2019-05-26T17:13:12.788Z,18.60
2019-05-26T17:15:44.486Z,18.50
2019-05-26T17:18:16.601Z,18.30
2019-05-26T17:20:47.636Z,18.00
2019-05-26T17:23:18.825Z,18.00
2019-05-26T17:25:49.935Z,18.00
2019-05-26T17:28:21.052Z,18.00
2019-05-26T17:30:51.964Z,17.60
2019-05-26T17:33:23.461Z,17.40
2019-05-26T17:35:54.893Z,17.40
2019-05-26T17:38:26.137Z,17.30
2019-05-26T17:40:57.937Z,17.40
2019-05-26T17:43:28.990Z,17.30
2019-05-26T17:46:00.029Z,17.30
2019-05-26T17:48:31.140Z,17.40
2019-05-26T17:51:02.792Z,17.40
2019-05-26T17:53:33.973Z,17.40
2019-05-26T17:56:05.365Z,17.30
2019-05-26T17:58:36.329Z,17.40
2019-05-26T18:01:07.528Z,17.30
2019-05-26T18:03:39.288Z,17.30
2019-05-26T18:06:10.787Z,17.20
2019-05-26T18:08:41.891Z,17.20
2019-05-26T18:11:13.215Z,17.30
2019-05-26T18:13:46.504Z,17.20
2019-05-26T18:16:17.113Z,17.20
2019-05-26T18:18:48.127Z,17.20
2019-05-26T18:21:19.065Z,17.20
2019-05-26T18:23:50.368Z,17.20
2019-05-26T18:26:21.406Z,17.20
2019-05-26T18:28:55.192Z,17.20
2019-05-26T18:31:28.997Z,17.20
2019-05-26T18:33:58.924Z,17.20
2019-05-26T18:36:30.019Z,17.20
2019-05-26T18:39:00.952Z,17.20
2019-05-26T18:41:32.259Z,17.10
2019-05-26T18:44:03.618Z,17.20
2019-05-26T18:46:34.677Z,17.10
2019-05-26T18:49:05.960Z,17.00
2019-05-26T18:51:37.049Z,17.00
2019-05-26T18:54:08.180Z,16.90
2019-05-26T18:56:39.462Z,16.90
2019-05-26T18:59:10.541Z,16.70
2019-05-26T19:01:41.455Z,16.80
2019-05-26T19:04:12.473Z,16.80
2019-05-26T19:06:43.849Z,16.70
2019-05-26T19:09:15.173Z,16.70
2019-05-26T19:11:46.246Z,16.60
2019-05-26T19:14:17.707Z,16.70
2019-05-26T19:16:48.783Z,16.70
2019-05-26T19:19:20.282Z,16.60
2019-05-26T19:21:51.498Z,16.60
2019-05-26T19:24:22.986Z,16.50
2019-05-26T19:26:54.096Z,16.50
2019-05-26T19:29:25.175Z,16.40
2019-05-26T19:31:56.354Z,16.40
2019-05-26T19:34:27.495Z,16.50
2019-05-26T19:36:58.618Z,16.50
2019-05-26T19:39:29.744Z,16.50
2019-05-26T19:42:01.114Z,16.50
2019-05-26T19:44:32.200Z,16.50
2019-05-26T19:47:03.219Z,16.50
2019-05-26T19:49:35.917Z,16.60
2019-05-26T19:52:07.391Z,16.50
2019-05-26T19:54:38.490Z,16.60
2019-05-26T19:57:10.190Z,16.50
2019-05-26T19:59:41.099Z,16.40
2019-05-26T20:02:18.408Z,16.50
2019-05-26T20:04:46.006Z,16.50
2019-05-26T20:07:17.039Z,16.50
2019-05-26T20:09:48.078Z,16.40
2019-05-26T20:12:19.171Z,16.50
2019-05-26T20:14:50.216Z,16.50
2019-05-26T20:17:22.106Z,16.50
2019-05-26T20:19:54.022Z,16.60
2019-05-26T20:22:25.257Z,16.60
2019-05-26T20:24:56.393Z,16.50
2019-05-26T20:27:27.374Z,16.50
2019-05-26T20:29:58.658Z,16.50
2019-05-26T20:32:30.396Z,16.50
2019-05-26T20:35:01.566Z,16.50
2019-05-26T20:37:33.180Z,16.50
2019-05-26T20:40:04.878Z,16.50
2019-05-26T20:42:36.329Z,16.50
2019-05-26T20:45:07.984Z,16.50
2019-05-26T20:47:39.516Z,16.40
2019-05-26T20:50:27.668Z,16.50
2019-05-26T20:52:44.287Z,16.40
2019-05-26T20:55:16.364Z,16.40
2019-05-26T20:57:48.078Z,16.40
2019-05-26T21:00:19.296Z,16.40
2019-05-26T21:02:50.366Z,16.40
2019-05-26T21:05:21.372Z,16.30
2019-05-26T21:07:52.843Z,16.30
2019-05-26T21:10:23.942Z,16.30
2019-05-26T21:12:54.902Z,16.30
2019-05-26T21:15:26.004Z,16.20
2019-05-26T21:17:57.455Z,16.30
2019-05-26T21:20:28.560Z,16.30
2019-05-26T21:22:59.645Z,16.30
2019-05-26T21:25:30.585Z,16.20
2019-05-26T21:28:01.573Z,16.10
2019-05-26T21:30:32.505Z,16.00
2019-05-26T21:33:03.468Z,15.90
2019-05-26T21:35:34.510Z,15.90
2019-05-26T21:38:05.443Z,15.90
2019-05-26T21:40:36.735Z,15.60
2019-05-26T21:43:08.209Z,15.60
2019-05-26T21:45:39.547Z,15.40
2019-05-26T21:48:11.355Z,15.40
2019-05-26T21:50:42.424Z,15.30
2019-05-26T21:53:13.465Z,15.10
2019-05-26T21:55:44.604Z,15.10
2019-05-26T21:58:15.628Z,14.90
2019-05-26T22:00:49.254Z,15.00
2019-05-26T22:03:21.312Z,14.90
2019-05-26T22:05:52.312Z,15.00
2019-05-26T22:08:23.271Z,14.80
2019-05-26T22:10:54.311Z,14.70
2019-05-26T22:13:25.628Z,14.80
2019-05-26T22:15:56.649Z,14.80
2019-05-26T22:18:28.629Z,14.70
2019-05-26T22:20:59.856Z,14.70
2019-05-26T22:23:33.925Z,14.70
2019-05-26T22:26:04.918Z,14.60
2019-05-26T22:28:35.897Z,14.50
2019-05-26T22:31:06.852Z,14.60
2019-05-26T22:33:38.086Z,14.60
2019-05-26T22:36:09.017Z,14.70
2019-05-26T22:38:40.054Z,14.60
2019-05-26T22:41:11.393Z,14.50
2019-05-26T22:43:42.394Z,14.50
2019-05-26T22:46:13.492Z,14.40
2019-05-26T22:48:45.248Z,14.50
2019-05-26T22:51:16.160Z,14.40
2019-05-26T22:53:47.174Z,14.40
2019-05-26T22:56:18.245Z,14.30
2019-05-26T22:58:49.267Z,14.40
2019-05-26T23:01:20.562Z,14.40
2019-05-26T23:03:52.080Z,14.40
2019-05-26T23:06:23.022Z,14.30
2019-05-26T23:08:54.118Z,14.30
2019-05-26T23:11:25.442Z,14.30
2019-05-26T23:13:56.814Z,14.30
2019-05-26T23:16:27.748Z,14.30
2019-05-26T23:18:59.890Z,14.30
2019-05-26T23:21:30.894Z,14.30
2019-05-26T23:24:02.307Z,14.30
2019-05-26T23:26:33.621Z,14.20
2019-05-26T23:29:07.537Z,14.30
2019-05-26T23:31:38.862Z,14.20
2019-05-26T23:34:09.887Z,14.30
2019-05-26T23:36:40.924Z,14.30
2019-05-26T23:39:12.026Z,14.40
2019-05-26T23:41:43.003Z,14.30
2019-05-26T23:44:14.015Z,14.20
2019-05-26T23:46:44.964Z,14.20
2019-05-26T23:49:15.972Z,14.20
2019-05-26T23:51:46.890Z,14.20
2019-05-26T23:54:18.175Z,14.20
2019-05-26T23:56:49.109Z,14.20
2019-05-26T23:59:20.642Z,14.20
